Baraga, MI

2:42 PM EDT on September 18, 2014 (GMT -0400)
Keweenaw Bay West Shore | Change Station
CLOSE
Current Station
Personal Weather Station
Location: Baraga, MI
Elevation: 640 ft
Nearby Weather Stations

Elev 640 ft 46.92 °N, 88.46 °W | Updated 12 minutes ago

Partly Cloudy
Partly Cloudy
50.7 °F
Feels Like 50.7 °F
N
2.0
Wind Variable Wind from ENE
Gusts 3.8 mph

Today
High -- | Low -- °F
--% Chance of Precip.
Yesterday
High -- | Low -- °F
Precip. -- in
7:35 AM 7:59 PM
Waning Crescent, 25% visible
Pressure 30.22 in
Visibility 10.0 miles
Clouds Few 2600 ft
Dew Point 41 °F
Humidity 69%
Rainfall -999.00 in
Snow Depth Not available.
UV 6 out of 12
Pollen 4.00 out of 12
Air Quality Not available.
Flu Activity Not available.
METAR KCMX 181753Z AUTO 13011KT 10SM FEW026 09/01 A3019 RMK AO2 SLP233 T00940011 10100 20028 58002

More Conditions Fewer Conditions

Pressure 30.22 in
Visibility 10.0 miles
Clouds Few 2600 ft
Dew Point 41 °F
Humidity 69%
Rainfall -999.00 in
Snow Depth Not available.
UV 6 out of 12
Pollen 4.00 out of 12
Air Quality Not available.
Flu Activity Not available.
METAR KCMX 181753Z AUTO 13011KT 10SM FEW026 09/01 A3019 RMK AO2 SLP233 T00940011 10100 20028 58002

More Conditions Fewer Conditions

10-Day Weather Forecast

Almanac

Astronomy

Sep. 18, 2014 Rise Set
Actual Time 7:35 AM EDT 7:59 PM EDT
Civil Twilight 7:05 AM EDT 8:29 PM EDT
Nautical Twilight 6:29 AM EDT 9:05 PM EDT
Astronomical Twilight 5:52 AM EDT 9:42 PM EDT
Moon 2:12 AM EDT 5:04 PM EDT
Length of Visible Light 13h 24m
Length of Day
12h 24m
Tomorrow will be 3m 18s shorter.
Waning Crescent, 25% of the Moon is Illuminated
Today
Waning Crescent
Sep 24
New
Oct 1
First Quarter
Oct 8
Full
Oct 15
Last Quarter

Today's Extremes

State Highs State Lows

Community

WunderPhotos

Upload Photos

1,754,417 photos uploaded!

WunderBlogs® & News

Nearby

Snow Depth

Station Depth Elevation
No new snow has been reported.

Earthquake Activity

City Distance Mag. Time & Date
No recent earthquake activity has been reported nearby.
Minimum magnitude displayed is 2.5.

Coastal Water Temperatures

Place Temperature
No Stations Reporting

Nearby Weather Stations